sensor_id;sensor_type;location;lat;lon;timestamp;temperature;humidity
4505;DHT22;2265;48.794;9.520;2023-07-02T00:00:53;18.30;98.00
4505;DHT22;2265;48.794;9.520;2023-07-02T00:03:21;18.20;98.00
4505;DHT22;2265;48.794;9.520;2023-07-02T00:05:48;18.20;98.00
4505;DHT22;2265;48.794;9.520;2023-07-02T00:08:19;18.20;98.00
4505;DHT22;2265;48.794;9.520;2023-07-02T00:10:46;18.10;98.00
4505;DHT22;2265;48.794;9.520;2023-07-02T00:13:14;18.10;98.00
4505;DHT22;2265;48.794;9.520;2023-07-02T00:15:42;18.20;98.00
4505;DHT22;2265;48.794;9.520;2023-07-02T00:18:09;18.20;98.00
4505;DHT22;2265;48.794;9.520;2023-07-02T00:20:36;18.10;98.00
4505;DHT22;2265;48.794;9.520;2023-07-02T00:23:03;18.10;98.00
4505;DHT22;2265;48.794;9.520;2023-07-02T00:25:32;18.20;98.00
4505;DHT22;2265;48.794;9.520;2023-07-02T00:27:59;18.10;98.00
4505;DHT22;2265;48.794;9.520;2023-07-02T00:30:26;18.10;98.00
4505;DHT22;2265;48.794;9.520;2023-07-02T00:32:54;18.00;98.00
4505;DHT22;2265;48.794;9.520;2023-07-02T00:35:21;18.10;98.00
4505;DHT22;2265;48.794;9.520;2023-07-02T00:37:49;18.10;98.00
4505;DHT22;2265;48.794;9.520;2023-07-02T00:40:16;18.10;98.00
4505;DHT22;2265;48.794;9.520;2023-07-02T00:42:44;18.00;98.00
4505;DHT22;2265;48.794;9.520;2023-07-02T00:45:11;18.00;98.00
4505;DHT22;2265;48.794;9.520;2023-07-02T00:47:39;17.90;98.00
4505;DHT22;2265;48.794;9.520;2023-07-02T00:50:06;17.80;98.00
4505;DHT22;2265;48.794;9.520;2023-07-02T00:52:34;18.00;98.00
4505;DHT22;2265;48.794;9.520;2023-07-02T00:55:02;18.00;98.00
4505;DHT22;2265;48.794;9.520;2023-07-02T00:57:29;17.80;98.00
4505;DHT22;2265;48.794;9.520;2023-07-02T00:59:58;17.90;98.00
4505;DHT22;2265;48.794;9.520;2023-07-02T01:02:28;17.80;98.00
4505;DHT22;2265;48.794;9.520;2023-07-02T01:04:56;17.80;98.00
4505;DHT22;2265;48.794;9.520;2023-07-02T01:07:25;17.80;98.00
4505;DHT22;2265;48.794;9.520;2023-07-02T01:09:52;17.70;98.00
4505;DHT22;2265;48.794;9.520;2023-07-02T01:12:20;17.60;98.00
4505;DHT22;2265;48.794;9.520;2023-07-02T01:14:49;17.50;98.00
4505;DHT22;2265;48.794;9.520;2023-07-02T01:17:20;17.50;98.00
4505;DHT22;2265;48.794;9.520;2023-07-02T01:19:52;17.50;98.00
4505;DHT22;2265;48.794;9.520;2023-07-02T01:22:21;17.50;98.00
4505;DHT22;2265;48.794;9.520;2023-07-02T01:24:49;17.40;98.00
4505;DHT22;2265;48.794;9.520;2023-07-02T01:27:20;17.50;98.00
4505;DHT22;2265;48.794;9.520;2023-07-02T01:29:51;17.70;98.00
4505;DHT22;2265;48.794;9.520;2023-07-02T01:32:19;17.70;98.00
4505;DHT22;2265;48.794;9.520;2023-07-02T01:34:46;17.70;98.00
4505;DHT22;2265;48.794;9.520;2023-07-02T01:37:16;17.70;98.00
4505;DHT22;2265;48.794;9.520;2023-07-02T01:39:44;17.70;98.00
4505;DHT22;2265;48.794;9.520;2023-07-02T01:42:12;17.70;98.00
4505;DHT22;2265;48.794;9.520;2023-07-02T01:44:41;17.70;98.00
4505;DHT22;2265;48.794;9.520;2023-07-02T01:47:12;17.70;98.00
4505;DHT22;2265;48.794;9.520;2023-07-02T01:49:39;17.80;98.00
4505;DHT22;2265;48.794;9.520;2023-07-02T01:52:06;17.80;98.00
4505;DHT22;2265;48.794;9.520;2023-07-02T01:54:35;17.90;98.00
4505;DHT22;2265;48.794;9.520;2023-07-02T01:57:04;17.80;98.00
4505;DHT22;2265;48.794;9.520;2023-07-02T01:59:32;17.70;98.00
4505;DHT22;2265;48.794;9.520;2023-07-02T02:01:59;17.80;98.00
4505;DHT22;2265;48.794;9.520;2023-07-02T02:04:27;17.80;98.00
4505;DHT22;2265;48.794;9.520;2023-07-02T02:06:54;17.70;98.00
4505;DHT22;2265;48.794;9.520;2023-07-02T02:09:21;17.60;98.00
4505;DHT22;2265;48.794;9.520;2023-07-02T02:11:50;17.60;98.00
4505;DHT22;2265;48.794;9.520;2023-07-02T02:14:17;17.40;98.00
4505;DHT22;2265;48.794;9.520;2023-07-02T02:16:45;17.40;98.00
4505;DHT22;2265;48.794;9.520;2023-07-02T02:19:12;17.50;98.00
4505;DHT22;2265;48.794;9.520;2023-07-02T02:21:40;17.50;98.00
4505;DHT22;2265;48.794;9.520;2023-07-02T02:24:07;17.60;98.00
4505;DHT22;2265;48.794;9.520;2023-07-02T02:26:34;17.50;98.00
4505;DHT22;2265;48.794;9.520;2023-07-02T02:29:03;17.40;98.00
4505;DHT22;2265;48.794;9.520;2023-07-02T02:31:30;17.40;98.00
4505;DHT22;2265;48.794;9.520;2023-07-02T02:33:58;17.50;98.00
4505;DHT22;2265;48.794;9.520;2023-07-02T02:36:25;17.50;98.00
4505;DHT22;2265;48.794;9.520;2023-07-02T02:38:52;17.50;98.00
4505;DHT22;2265;48.794;9.520;2023-07-02T02:41:19;17.40;98.00
4505;DHT22;2265;48.794;9.520;2023-07-02T02:43:46;17.30;98.00
4505;DHT22;2265;48.794;9.520;2023-07-02T02:46:19;17.20;98.00
4505;DHT22;2265;48.794;9.520;2023-07-02T02:48:47;17.30;98.00
4505;DHT22;2265;48.794;9.520;2023-07-02T02:51:14;17.40;98.00
4505;DHT22;2265;48.794;9.520;2023-07-02T02:53:42;17.50;98.00
4505;DHT22;2265;48.794;9.520;2023-07-02T02:56:09;17.40;98.00
4505;DHT22;2265;48.794;9.520;2023-07-02T02:58:37;17.30;98.00
4505;DHT22;2265;48.794;9.520;2023-07-02T03:01:04;17.20;98.00
4505;DHT22;2265;48.794;9.520;2023-07-02T03:03:38;17.20;98.00
4505;DHT22;2265;48.794;9.520;2023-07-02T03:06:05;17.20;98.00
4505;DHT22;2265;48.794;9.520;2023-07-02T03:08:32;17.20;98.00
4505;DHT22;2265;48.794;9.520;2023-07-02T03:10:59;17.20;98.00
4505;DHT22;2265;48.794;9.520;2023-07-02T03:13:26;17.20;98.00
4505;DHT22;2265;48.794;9.520;2023-07-02T03:15:53;17.30;98.00
4505;DHT22;2265;48.794;9.520;2023-07-02T03:18:20;17.30;98.00
4505;DHT22;2265;48.794;9.520;2023-07-02T03:20:48;17.30;98.00
4505;DHT22;2265;48.794;9.520;2023-07-02T03:23:16;17.20;98.00
4505;DHT22;2265;48.794;9.520;2023-07-02T03:25:42;17.20;98.00
4505;DHT22;2265;48.794;9.520;2023-07-02T03:28:10;17.10;98.00
4505;DHT22;2265;48.794;9.520;2023-07-02T03:30:37;17.10;98.00
4505;DHT22;2265;48.794;9.520;2023-07-02T03:33:04;17.10;98.00
4505;DHT22;2265;48.794;9.520;2023-07-02T03:35:32;17.20;98.00
4505;DHT22;2265;48.794;9.520;2023-07-02T03:38:00;17.20;98.00
4505;DHT22;2265;48.794;9.520;2023-07-02T03:40:27;17.30;98.00
4505;DHT22;2265;48.794;9.520;2023-07-02T03:42:54;17.30;98.00
4505;DHT22;2265;48.794;9.520;2023-07-02T03:45:21;17.60;98.00
4505;DHT22;2265;48.794;9.520;2023-07-02T03:47:48;17.80;98.00
4505;DHT22;2265;48.794;9.520;2023-07-02T03:50:15;17.80;98.00
4505;DHT22;2265;48.794;9.520;2023-07-02T03:52:44;17.80;98.00
4505;DHT22;2265;48.794;9.520;2023-07-02T03:55:14;17.70;98.00
4505;DHT22;2265;48.794;9.520;2023-07-02T03:57:41;17.60;98.00
4505;DHT22;2265;48.794;9.520;2023-07-02T04:00:09;17.60;98.00
4505;DHT22;2265;48.794;9.520;2023-07-02T04:02:37;17.40;98.00
4505;DHT22;2265;48.794;9.520;2023-07-02T04:05:05;17.10;98.00
4505;DHT22;2265;48.794;9.520;2023-07-02T04:07:33;17.00;98.00
4505;DHT22;2265;48.794;9.520;2023-07-02T04:10:00;16.70;98.00
4505;DHT22;2265;48.794;9.520;2023-07-02T04:12:29;16.60;98.00
4505;DHT22;2265;48.794;9.520;2023-07-02T04:14:56;16.50;98.00
4505;DHT22;2265;48.794;9.520;2023-07-02T04:17:23;16.30;98.00
4505;DHT22;2265;48.794;9.520;2023-07-02T04:19:54;16.30;98.00
4505;DHT22;2265;48.794;9.520;2023-07-02T04:22:23;16.30;98.00
4505;DHT22;2265;48.794;9.520;2023-07-02T04:24:50;16.30;98.00
4505;DHT22;2265;48.794;9.520;2023-07-02T04:27:17;16.30;98.00
4505;DHT22;2265;48.794;9.520;2023-07-02T04:29:46;16.30;98.00
4505;DHT22;2265;48.794;9.520;2023-07-02T04:32:14;16.40;98.00
4505;DHT22;2265;48.794;9.520;2023-07-02T04:34:41;16.40;98.00
4505;DHT22;2265;48.794;9.520;2023-07-02T04:37:09;16.50;98.00
4505;DHT22;2265;48.794;9.520;2023-07-02T04:39:36;16.50;98.00
4505;DHT22;2265;48.794;9.520;2023-07-02T04:42:04;16.50;98.00
4505;DHT22;2265;48.794;9.520;2023-07-02T04:44:31;16.60;98.00
4505;DHT22;2265;48.794;9.520;2023-07-02T04:47:01;16.70;98.00
4505;DHT22;2265;48.794;9.520;2023-07-02T04:49:28;16.70;98.00
4505;DHT22;2265;48.794;9.520;2023-07-02T04:51:55;16.70;98.00
4505;DHT22;2265;48.794;9.520;2023-07-02T04:54:22;16.50;98.00
4505;DHT22;2265;48.794;9.520;2023-07-02T04:56:49;16.50;98.00
4505;DHT22;2265;48.794;9.520;2023-07-02T04:59:16;16.40;98.00
4505;DHT22;2265;48.794;9.520;2023-07-02T05:01:43;16.40;98.00
4505;DHT22;2265;48.794;9.520;2023-07-02T05:04:13;16.40;98.00
4505;DHT22;2265;48.794;9.520;2023-07-02T05:06:40;16.30;98.00
4505;DHT22;2265;48.794;9.520;2023-07-02T05:09:08;16.30;98.00
4505;DHT22;2265;48.794;9.520;2023-07-02T05:11:35;16.40;98.00
4505;DHT22;2265;48.794;9.520;2023-07-02T05:14:04;16.60;98.00
4505;DHT22;2265;48.794;9.520;2023-07-02T05:16:31;16.70;98.00
4505;DHT22;2265;48.794;9.520;2023-07-02T05:18:58;16.70;98.00
4505;DHT22;2265;48.794;9.520;2023-07-02T05:21:26;16.80;98.00
4505;DHT22;2265;48.794;9.520;2023-07-02T05:23:53;16.80;98.00
4505;DHT22;2265;48.794;9.520;2023-07-02T05:26:20;16.90;98.00
4505;DHT22;2265;48.794;9.520;2023-07-02T05:28:47;17.00;98.00
4505;DHT22;2265;48.794;9.520;2023-07-02T05:31:14;16.90;98.00
4505;DHT22;2265;48.794;9.520;2023-07-02T05:33:41;17.00;98.00
4505;DHT22;2265;48.794;9.520;2023-07-02T05:36:08;17.10;98.00
4505;DHT22;2265;48.794;9.520;2023-07-02T05:38:37;17.30;98.00
4505;DHT22;2265;48.794;9.520;2023-07-02T05:41:04;17.30;98.00
4505;DHT22;2265;48.794;9.520;2023-07-02T05:43:33;17.40;98.00
4505;DHT22;2265;48.794;9.520;2023-07-02T05:46:00;17.30;98.00
4505;DHT22;2265;48.794;9.520;2023-07-02T05:48:28;17.50;98.00
4505;DHT22;2265;48.794;9.520;2023-07-02T05:50:55;17.50;98.00
4505;DHT22;2265;48.794;9.520;2023-07-02T05:53:23;17.60;98.00
4505;DHT22;2265;48.794;9.520;2023-07-02T05:55:52;17.70;98.00
4505;DHT22;2265;48.794;9.520;2023-07-02T05:58:19;17.80;98.00
4505;DHT22;2265;48.794;9.520;2023-07-02T06:00:46;17.90;98.00
4505;DHT22;2265;48.794;9.520;2023-07-02T06:03:15;18.00;98.00
4505;DHT22;2265;48.794;9.520;2023-07-02T06:05:46;18.00;98.00
4505;DHT22;2265;48.794;9.520;2023-07-02T06:08:15;18.00;98.00
4505;DHT22;2265;48.794;9.520;2023-07-02T06:10:45;17.90;98.00
4505;DHT22;2265;48.794;9.520;2023-07-02T06:13:14;17.90;98.00
4505;DHT22;2265;48.794;9.520;2023-07-02T06:15:42;17.90;98.00
4505;DHT22;2265;48.794;9.520;2023-07-02T06:18:09;18.00;98.00
4505;DHT22;2265;48.794;9.520;2023-07-02T06:20:36;17.90;98.00
4505;DHT22;2265;48.794;9.520;2023-07-02T06:23:03;17.90;98.00
4505;DHT22;2265;48.794;9.520;2023-07-02T06:25:30;17.90;98.00
4505;DHT22;2265;48.794;9.520;2023-07-02T06:27:58;18.00;98.00
4505;DHT22;2265;48.794;9.520;2023-07-02T06:30:27;18.00;98.00
4505;DHT22;2265;48.794;9.520;2023-07-02T06:32:54;18.00;98.00
4505;DHT22;2265;48.794;9.520;2023-07-02T06:35:21;18.10;98.00
4505;DHT22;2265;48.794;9.520;2023-07-02T06:37:48;18.20;98.00
4505;DHT22;2265;48.794;9.520;2023-07-02T06:40:16;18.30;98.00
4505;DHT22;2265;48.794;9.520;2023-07-02T06:42:43;18.40;98.00
4505;DHT22;2265;48.794;9.520;2023-07-02T06:45:10;18.50;98.00
4505;DHT22;2265;48.794;9.520;2023-07-02T06:47:39;18.50;98.00
4505;DHT22;2265;48.794;9.520;2023-07-02T06:50:06;18.50;98.00
4505;DHT22;2265;48.794;9.520;2023-07-02T06:52:34;18.50;98.00
4505;DHT22;2265;48.794;9.520;2023-07-02T06:55:02;18.50;98.00
4505;DHT22;2265;48.794;9.520;2023-07-02T06:57:30;18.50;98.00
4505;DHT22;2265;48.794;9.520;2023-07-02T06:59:58;18.50;98.00
4505;DHT22;2265;48.794;9.520;2023-07-02T07:02:29;18.50;98.00
4505;DHT22;2265;48.794;9.520;2023-07-02T07:04:57;18.50;98.00
4505;DHT22;2265;48.794;9.520;2023-07-02T07:07:25;18.70;98.00
4505;DHT22;2265;48.794;9.520;2023-07-02T07:09:52;18.70;98.00
4505;DHT22;2265;48.794;9.520;2023-07-02T07:12:19;18.80;98.00
4505;DHT22;2265;48.794;9.520;2023-07-02T07:14:46;18.90;98.00
4505;DHT22;2265;48.794;9.520;2023-07-02T07:17:13;19.00;98.00
4505;DHT22;2265;48.794;9.520;2023-07-02T07:19:40;19.00;98.00
4505;DHT22;2265;48.794;9.520;2023-07-02T07:22:09;18.90;98.00
4505;DHT22;2265;48.794;9.520;2023-07-02T07:24:36;18.70;98.00
4505;DHT22;2265;48.794;9.520;2023-07-02T07:27:05;18.70;98.00
4505;DHT22;2265;48.794;9.520;2023-07-02T07:29:32;18.60;98.00
4505;DHT22;2265;48.794;9.520;2023-07-02T07:31:59;18.60;98.00
4505;DHT22;2265;48.794;9.520;2023-07-02T07:34:26;18.60;98.00
4505;DHT22;2265;48.794;9.520;2023-07-02T07:36:53;18.70;98.00
4505;DHT22;2265;48.794;9.520;2023-07-02T07:39:22;18.80;98.00
4505;DHT22;2265;48.794;9.520;2023-07-02T07:41:49;18.90;98.00
4505;DHT22;2265;48.794;9.520;2023-07-02T07:44:16;18.90;98.00
4505;DHT22;2265;48.794;9.520;2023-07-02T07:46:43;18.90;98.00
4505;DHT22;2265;48.794;9.520;2023-07-02T07:49:10;18.90;98.00
4505;DHT22;2265;48.794;9.520;2023-07-02T07:51:37;19.00;98.00
4505;DHT22;2265;48.794;9.520;2023-07-02T07:54:04;19.30;98.00
4505;DHT22;2265;48.794;9.520;2023-07-02T07:56:33;19.20;98.00
4505;DHT22;2265;48.794;9.520;2023-07-02T07:59:00;19.30;98.00
4505;DHT22;2265;48.794;9.520;2023-07-02T08:01:27;19.30;98.00
4505;DHT22;2265;48.794;9.520;2023-07-02T08:03:59;19.40;98.00
4505;DHT22;2265;48.794;9.520;2023-07-02T08:06:26;19.30;98.00
4505;DHT22;2265;48.794;9.520;2023-07-02T08:08:53;19.40;98.00
4505;DHT22;2265;48.794;9.520;2023-07-02T08:11:21;19.40;98.00
4505;DHT22;2265;48.794;9.520;2023-07-02T08:13:49;19.50;98.00
4505;DHT22;2265;48.794;9.520;2023-07-02T08:16:16;19.50;98.00
4505;DHT22;2265;48.794;9.520;2023-07-02T08:18:43;19.60;98.00
4505;DHT22;2265;48.794;9.520;2023-07-02T08:21:10;19.50;98.00
4505;DHT22;2265;48.794;9.520;2023-07-02T08:23:38;19.70;98.00
4505;DHT22;2265;48.794;9.520;2023-07-02T08:26:05;19.90;98.00
4505;DHT22;2265;48.794;9.520;2023-07-02T08:28:33;20.00;98.00
4505;DHT22;2265;48.794;9.520;2023-07-02T08:31:01;20.10;98.00
4505;DHT22;2265;48.794;9.520;2023-07-02T08:33:28;20.20;98.00
4505;DHT22;2265;48.794;9.520;2023-07-02T08:35:55;20.40;98.00
4505;DHT22;2265;48.794;9.520;2023-07-02T08:38:23;20.40;98.00
4505;DHT22;2265;48.794;9.520;2023-07-02T08:40:50;20.30;98.00
4505;DHT22;2265;48.794;9.520;2023-07-02T08:43:17;20.30;98.00
4505;DHT22;2265;48.794;9.520;2023-07-02T08:45:45;20.30;98.00
4505;DHT22;2265;48.794;9.520;2023-07-02T08:48:13;20.40;98.00
4505;DHT22;2265;48.794;9.520;2023-07-02T08:50:42;20.50;98.00
4505;DHT22;2265;48.794;9.520;2023-07-02T08:53:09;20.70;98.00
4505;DHT22;2265;48.794;9.520;2023-07-02T08:55:36;20.80;98.00
4505;DHT22;2265;48.794;9.520;2023-07-02T08:58:03;20.90;98.00
4505;DHT22;2265;48.794;9.520;2023-07-02T09:00:30;20.90;98.00
4505;DHT22;2265;48.794;9.520;2023-07-02T09:03:13;20.90;98.00
4505;DHT22;2265;48.794;9.520;2023-07-02T09:06:05;21.10;98.00
4505;DHT22;2265;48.794;9.520;2023-07-02T09:08:47;21.30;98.00
4505;DHT22;2265;48.794;9.520;2023-07-02T09:11:15;21.50;98.00
4505;DHT22;2265;48.794;9.520;2023-07-02T09:13:44;21.70;98.00
4505;DHT22;2265;48.794;9.520;2023-07-02T09:16:24;21.90;98.00
4505;DHT22;2265;48.794;9.520;2023-07-02T09:19:01;21.90;98.00
4505;DHT22;2265;48.794;9.520;2023-07-02T09:21:37;21.90;98.00
4505;DHT22;2265;48.794;9.520;2023-07-02T09:24:12;22.00;98.00
4505;DHT22;2265;48.794;9.520;2023-07-02T09:26:43;21.90;98.00
4505;DHT22;2265;48.794;9.520;2023-07-02T09:29:11;22.10;98.00
4505;DHT22;2265;48.794;9.520;2023-07-02T09:31:45;22.20;98.00
4505;DHT22;2265;48.794;9.520;2023-07-02T09:34:17;22.30;97.80
4505;DHT22;2265;48.794;9.520;2023-07-02T09:36:44;22.30;98.00
4505;DHT22;2265;48.794;9.520;2023-07-02T09:39:13;22.10;98.00
4505;DHT22;2265;48.794;9.520;2023-07-02T09:41:41;21.80;97.70
4505;DHT22;2265;48.794;9.520;2023-07-02T09:44:10;21.90;98.00
4505;DHT22;2265;48.794;9.520;2023-07-02T09:46:42;22.10;97.80
4505;DHT22;2265;48.794;9.520;2023-07-02T09:49:14;22.20;96.10
4505;DHT22;2265;48.794;9.520;2023-07-02T09:51:45;22.20;96.10
4505;DHT22;2265;48.794;9.520;2023-07-02T09:54:14;22.10;96.20
4505;DHT22;2265;48.794;9.520;2023-07-02T09:56:42;22.30;95.10
4505;DHT22;2265;48.794;9.520;2023-07-02T09:59:10;22.40;95.00
4505;DHT22;2265;48.794;9.520;2023-07-02T10:01:37;22.50;95.40
4505;DHT22;2265;48.794;9.520;2023-07-02T10:04:12;22.40;94.90
4505;DHT22;2265;48.794;9.520;2023-07-02T10:06:48;22.60;94.70
4505;DHT22;2265;48.794;9.520;2023-07-02T10:09:16;22.40;94.70
4505;DHT22;2265;48.794;9.520;2023-07-02T10:11:43;22.50;95.60
4505;DHT22;2265;48.794;9.520;2023-07-02T10:14:10;22.50;94.70
4505;DHT22;2265;48.794;9.520;2023-07-02T10:16:50;22.60;95.10
4505;DHT22;2265;48.794;9.520;2023-07-02T10:19:21;22.70;95.40
4505;DHT22;2265;48.794;9.520;2023-07-02T10:22:02;22.80;95.10
4505;DHT22;2265;48.794;9.520;2023-07-02T10:24:29;22.70;94.40
4505;DHT22;2265;48.794;9.520;2023-07-02T10:26:58;22.80;94.70
4505;DHT22;2265;48.794;9.520;2023-07-02T10:29:27;22.80;95.20
4505;DHT22;2265;48.794;9.520;2023-07-02T10:31:55;23.10;95.00
4505;DHT22;2265;48.794;9.520;2023-07-02T10:34:30;23.20;94.50
4505;DHT22;2265;48.794;9.520;2023-07-02T10:36:57;23.10;92.60
4505;DHT22;2265;48.794;9.520;2023-07-02T10:39:26;23.20;93.70
4505;DHT22;2265;48.794;9.520;2023-07-02T10:42:04;23.10;94.30
4505;DHT22;2265;48.794;9.520;2023-07-02T10:44:31;23.00;93.10
4505;DHT22;2265;48.794;9.520;2023-07-02T10:46:58;23.10;93.00
4505;DHT22;2265;48.794;9.520;2023-07-02T10:49:30;23.10;93.10
4505;DHT22;2265;48.794;9.520;2023-07-02T10:51:58;23.30;94.50
4505;DHT22;2265;48.794;9.520;2023-07-02T10:54:38;23.40;93.60
4505;DHT22;2265;48.794;9.520;2023-07-02T10:57:06;23.80;93.90
4505;DHT22;2265;48.794;9.520;2023-07-02T10:59:33;23.90;91.30
4505;DHT22;2265;48.794;9.520;2023-07-02T11:02:00;23.70;92.10
4505;DHT22;2265;48.794;9.520;2023-07-02T11:04:29;23.80;92.90
4505;DHT22;2265;48.794;9.520;2023-07-02T11:06:56;23.70;93.00
4505;DHT22;2265;48.794;9.520;2023-07-02T11:09:23;23.60;93.70
4505;DHT22;2265;48.794;9.520;2023-07-02T11:11:54;23.50;92.50
4505;DHT22;2265;48.794;9.520;2023-07-02T11:14:28;23.60;93.00
4505;DHT22;2265;48.794;9.520;2023-07-02T11:16:56;23.40;93.20
4505;DHT22;2265;48.794;9.520;2023-07-02T11:19:23;23.50;93.90
4505;DHT22;2265;48.794;9.520;2023-07-02T11:21:51;23.50;92.50
4505;DHT22;2265;48.794;9.520;2023-07-02T11:24:27;23.40;91.20
4505;DHT22;2265;48.794;9.520;2023-07-02T11:26:57;23.60;92.30
4505;DHT22;2265;48.794;9.520;2023-07-02T11:29:25;24.00;92.60
4505;DHT22;2265;48.794;9.520;2023-07-02T11:31:52;24.40;90.90
4505;DHT22;2265;48.794;9.520;2023-07-02T11:34:22;24.50;89.80
4505;DHT22;2265;48.794;9.520;2023-07-02T11:36:50;24.50;90.60
4505;DHT22;2265;48.794;9.520;2023-07-02T11:39:19;24.90;90.80
4505;DHT22;2265;48.794;9.520;2023-07-02T11:41:47;25.40;90.50
4505;DHT22;2265;48.794;9.520;2023-07-02T11:44:17;26.00;85.50
4505;DHT22;2265;48.794;9.520;2023-07-02T11:46:44;26.20;86.10
4505;DHT22;2265;48.794;9.520;2023-07-02T11:49:12;25.80;85.00
4505;DHT22;2265;48.794;9.520;2023-07-02T11:51:40;25.10;86.20
4505;DHT22;2265;48.794;9.520;2023-07-02T11:54:07;25.10;86.10
4505;DHT22;2265;48.794;9.520;2023-07-02T11:56:35;25.40;86.70
4505;DHT22;2265;48.794;9.520;2023-07-02T11:59:05;25.80;85.60
4505;DHT22;2265;48.794;9.520;2023-07-02T12:01:33;26.40;85.60
4505;DHT22;2265;48.794;9.520;2023-07-02T12:04:01;26.80;83.70
4505;DHT22;2265;48.794;9.520;2023-07-02T12:06:28;27.10;84.20
4505;DHT22;2265;48.794;9.520;2023-07-02T12:08:55;27.50;81.50
4505;DHT22;2265;48.794;9.520;2023-07-02T12:11:22;27.90;81.70
4505;DHT22;2265;48.794;9.520;2023-07-02T12:13:49;28.10;79.30
4505;DHT22;2265;48.794;9.520;2023-07-02T12:16:16;28.20;79.70
4505;DHT22;2265;48.794;9.520;2023-07-02T12:18:44;28.00;77.00
4505;DHT22;2265;48.794;9.520;2023-07-02T12:21:11;28.00;78.50
4505;DHT22;2265;48.794;9.520;2023-07-02T12:23:39;28.00;78.90
4505;DHT22;2265;48.794;9.520;2023-07-02T12:26:06;28.00;80.30
4505;DHT22;2265;48.794;9.520;2023-07-02T12:28:33;28.00;78.10
4505;DHT22;2265;48.794;9.520;2023-07-02T12:31:02;27.70;78.80
4505;DHT22;2265;48.794;9.520;2023-07-02T12:33:30;27.40;79.50
4505;DHT22;2265;48.794;9.520;2023-07-02T12:36:01;27.10;80.60
4505;DHT22;2265;48.794;9.520;2023-07-02T12:38:28;27.20;80.30
4505;DHT22;2265;48.794;9.520;2023-07-02T12:40:55;26.90;79.90
4505;DHT22;2265;48.794;9.520;2023-07-02T12:43:22;26.60;80.60
4505;DHT22;2265;48.794;9.520;2023-07-02T12:45:50;26.20;80.00
4505;DHT22;2265;48.794;9.520;2023-07-02T12:48:17;26.00;79.80
4505;DHT22;2265;48.794;9.520;2023-07-02T12:50:54;26.30;79.70
4505;DHT22;2265;48.794;9.520;2023-07-02T12:53:23;26.90;81.90
4505;DHT22;2265;48.794;9.520;2023-07-02T12:55:51;27.40;79.20
4505;DHT22;2265;48.794;9.520;2023-07-02T12:58:18;27.60;80.20
4505;DHT22;2265;48.794;9.520;2023-07-02T13:00:46;27.50;78.30
4505;DHT22;2265;48.794;9.520;2023-07-02T13:03:13;27.30;79.20
4505;DHT22;2265;48.794;9.520;2023-07-02T13:05:40;27.20;79.60
4505;DHT22;2265;48.794;9.520;2023-07-02T13:08:07;27.10;79.60
4505;DHT22;2265;48.794;9.520;2023-07-02T13:10:37;27.10;79.00
4505;DHT22;2265;48.794;9.520;2023-07-02T13:13:06;27.40;79.30
4505;DHT22;2265;48.794;9.520;2023-07-02T13:15:33;27.30;79.10
4505;DHT22;2265;48.794;9.520;2023-07-02T13:18:01;26.80;77.60
4505;DHT22;2265;48.794;9.520;2023-07-02T13:20:29;27.30;78.10
4505;DHT22;2265;48.794;9.520;2023-07-02T13:22:56;27.80;77.60
4505;DHT22;2265;48.794;9.520;2023-07-02T13:25:24;28.20;76.20
4505;DHT22;2265;48.794;9.520;2023-07-02T13:27:52;28.60;76.10
4505;DHT22;2265;48.794;9.520;2023-07-02T13:30:19;29.00;74.50
4505;DHT22;2265;48.794;9.520;2023-07-02T13:32:51;28.80;74.70
4505;DHT22;2265;48.794;9.520;2023-07-02T13:35:21;28.40;75.60
4505;DHT22;2265;48.794;9.520;2023-07-02T13:37:48;28.60;76.40
4505;DHT22;2265;48.794;9.520;2023-07-02T13:40:16;28.60;72.70
4505;DHT22;2265;48.794;9.520;2023-07-02T13:42:45;28.20;74.60
4505;DHT22;2265;48.794;9.520;2023-07-02T13:45:13;28.50;75.30
4505;DHT22;2265;48.794;9.520;2023-07-02T13:47:42;29.00;74.50
4505;DHT22;2265;48.794;9.520;2023-07-02T13:50:10;29.30;73.10
4505;DHT22;2265;48.794;9.520;2023-07-02T13:52:38;29.70;73.00
4505;DHT22;2265;48.794;9.520;2023-07-02T13:55:06;29.90;72.50
4505;DHT22;2265;48.794;9.520;2023-07-02T13:57:34;29.70;73.50
4505;DHT22;2265;48.794;9.520;2023-07-02T14:00:07;29.50;71.90
4505;DHT22;2265;48.794;9.520;2023-07-02T14:02:34;29.20;73.70
4505;DHT22;2265;48.794;9.520;2023-07-02T14:05:01;29.40;71.80
4505;DHT22;2265;48.794;9.520;2023-07-02T14:07:28;29.70;72.00
4505;DHT22;2265;48.794;9.520;2023-07-02T14:09:56;29.90;71.50
4505;DHT22;2265;48.794;9.520;2023-07-02T14:12:23;29.80;71.20
4505;DHT22;2265;48.794;9.520;2023-07-02T14:14:50;30.00;69.40
4505;DHT22;2265;48.794;9.520;2023-07-02T14:17:18;30.10;68.60
4505;DHT22;2265;48.794;9.520;2023-07-02T14:19:46;30.20;70.40
4505;DHT22;2265;48.794;9.520;2023-07-02T14:22:13;29.80;69.50
4505;DHT22;2265;48.794;9.520;2023-07-02T14:24:40;29.80;69.80
4505;DHT22;2265;48.794;9.520;2023-07-02T14:27:07;29.70;68.80
4505;DHT22;2265;48.794;9.520;2023-07-02T14:29:34;29.90;68.30
4505;DHT22;2265;48.794;9.520;2023-07-02T14:32:07;29.80;68.60
4505;DHT22;2265;48.794;9.520;2023-07-02T14:34:40;29.50;69.40
4505;DHT22;2265;48.794;9.520;2023-07-02T14:37:07;29.40;71.50
4505;DHT22;2265;48.794;9.520;2023-07-02T14:39:34;29.60;71.40
4505;DHT22;2265;48.794;9.520;2023-07-02T14:42:01;29.90;71.00
4505;DHT22;2265;48.794;9.520;2023-07-02T14:44:29;30.10;70.70
4505;DHT22;2265;48.794;9.520;2023-07-02T14:46:55;30.40;68.10
4505;DHT22;2265;48.794;9.520;2023-07-02T14:49:22;30.20;69.80
4505;DHT22;2265;48.794;9.520;2023-07-02T14:51:52;29.60;69.40
4505;DHT22;2265;48.794;9.520;2023-07-02T14:54:20;29.00;70.10
4505;DHT22;2265;48.794;9.520;2023-07-02T14:56:47;28.70;71.50
4505;DHT22;2265;48.794;9.520;2023-07-02T14:59:14;28.40;70.90
4505;DHT22;2265;48.794;9.520;2023-07-02T15:01:41;28.40;70.20
4505;DHT22;2265;48.794;9.520;2023-07-02T15:04:08;28.30;71.80
4505;DHT22;2265;48.794;9.520;2023-07-02T15:06:35;28.60;70.70
4505;DHT22;2265;48.794;9.520;2023-07-02T15:09:04;28.70;72.00
4505;DHT22;2265;48.794;9.520;2023-07-02T15:11:32;29.20;71.80
4505;DHT22;2265;48.794;9.520;2023-07-02T15:13:59;29.40;71.10
4505;DHT22;2265;48.794;9.520;2023-07-02T15:16:26;29.50;68.60
4505;DHT22;2265;48.794;9.520;2023-07-02T15:18:53;29.50;69.40
4505;DHT22;2265;48.794;9.520;2023-07-02T15:21:20;29.70;69.00
4505;DHT22;2265;48.794;9.520;2023-07-02T15:23:49;29.80;68.50
4505;DHT22;2265;48.794;9.520;2023-07-02T15:26:17;29.90;67.60
4505;DHT22;2265;48.794;9.520;2023-07-02T15:28:44;30.20;68.20
4505;DHT22;2265;48.794;9.520;2023-07-02T15:31:11;29.80;67.20
4505;DHT22;2265;48.794;9.520;2023-07-02T15:33:39;29.80;68.30
4505;DHT22;2265;48.794;9.520;2023-07-02T15:36:09;29.90;68.90
4505;DHT22;2265;48.794;9.520;2023-07-02T15:38:37;29.90;68.50
4505;DHT22;2265;48.794;9.520;2023-07-02T15:41:07;29.70;68.60
4505;DHT22;2265;48.794;9.520;2023-07-02T15:43:35;29.90;69.10
4505;DHT22;2265;48.794;9.520;2023-07-02T15:46:03;29.70;68.40
4505;DHT22;2265;48.794;9.520;2023-07-02T15:48:30;29.20;68.70
4505;DHT22;2265;48.794;9.520;2023-07-02T15:50:58;28.90;70.20
4505;DHT22;2265;48.794;9.520;2023-07-02T15:53:26;28.70;70.70
4505;DHT22;2265;48.794;9.520;2023-07-02T15:55:56;28.70;71.00
4505;DHT22;2265;48.794;9.520;2023-07-02T15:58:23;28.60;71.00
4505;DHT22;2265;48.794;9.520;2023-07-02T16:00:53;28.60;71.60
4505;DHT22;2265;48.794;9.520;2023-07-02T16:03:20;28.40;71.10
4505;DHT22;2265;48.794;9.520;2023-07-02T16:05:47;28.10;71.10
4505;DHT22;2265;48.794;9.520;2023-07-02T16:08:14;28.30;71.60